Mckinley Sea — WDE5024 — position and weather

sailwx.info

Track history (hours):
 
Tides and Currents Weather Stations Pressure Air Temp Water Temp Dewpoint Dewpoint Depression Visibility Wind Speed Wind Dir Waves Ship Positions

Mckinley Sea

Owner: Kirby Offshore Marine, LLC, Staten Island, NY. More information available from US FCC via Universal Licensing System and Coast Guard Vessel Documentation Center.

Last reported at 2017-Dec-11 17:01 UTC. Time now 2017-Dec-12 02:52 UTC.
Position N 40°39' W 074°04'.

Length 41 m; draft 6 m.

Type: . MMSI: 367360980.

Date/timePositionNaut miles runAvg speedWind from/ knotsBaromVisibWave heightAir tempDewpointWater temp
2017-Dec-11 17:01N 40°39' W 074°04'2 3.9
2017-Dec-11 16:30N 40°40' W 074°02'0 0.0
2017-Dec-11 16:00N 40°40' W 074°02'0 0.0
2017-Dec-11 15:30N 40°40' W 074°02'0 0.1
2017-Dec-11 15:00N 40°40' W 074°02'0 0.0
2017-Dec-11 14:30N 40°40' W 074°02'0 0.0
2017-Dec-11 14:00N 40°40' W 074°02'0 0.1
2017-Dec-11 13:30N 40°40' W 074°02'0 0.0
2017-Dec-11 12:57N 40°40' W 074°02'0 0.0
2017-Dec-11 12:30N 40°40' W 074°02'0 0.1
2017-Dec-11 12:00N 40°40' W 074°02'0 0.0
2017-Dec-11 11:30N 40°40' W 074°02'0 0.1
2017-Dec-11 11:00N 40°40' W 074°02'0 0.2
2017-Dec-11 10:30N 40°40' W 074°02'0 0.0
2017-Dec-11 10:00N 40°40' W 074°02'0 0.1
2017-Dec-11 09:30N 40°40' W 074°02'0 0.0
2017-Dec-11 09:00N 40°40' W 074°02'0 0.0
2017-Dec-11 08:30N 40°40' W 074°02'0 0.0
2017-Dec-11 08:00N 40°40' W 074°02'0 0.0
2017-Dec-11 07:30N 40°40' W 074°02'0 0.0
2017-Dec-11 07:00N 40°40' W 074°02'0 0.0
2017-Dec-11 06:30N 40°40' W 074°02'0 0.0
2017-Dec-11 06:00N 40°40' W 074°02'0 0.1
2017-Dec-11 05:30N 40°40' W 074°02'0 0.3
2017-Dec-11 05:00N 40°40' W 074°02'0 0.1
2017-Dec-11 04:30N 40°40' W 074°02'0 0.0
2017-Dec-11 04:00N 40°40' W 074°02'0 0.0
2017-Dec-11 03:30N 40°40' W 074°02'0 0.0
2017-Dec-11 03:00N 40°40' W 074°02'0 0.0
2017-Dec-11 02:30N 40°40' W 074°02'0 0.0
2017-Dec-11 02:00N 40°40' W 074°02'0 0.0
2017-Dec-11 01:30N 40°40' W 074°02'0 0.0
2017-Dec-11 01:00N 40°40' W 074°02'0 0.0
2017-Dec-11 00:30N 40°40' W 074°02'0 0.1
2017-Dec-11 00:00N 40°40' W 074°02'0 0.0
2017-Dec-10 23:30N 40°40' W 074°02'0 0.1
2017-Dec-10 23:00N 40°40' W 074°02'2 4.5
2017-Dec-10 22:30N 40°39' W 074°05'4 8.3
2017-Dec-10 22:00N 40°39' W 074°10'0 0.0
2017-Dec-10 21:27N 40°39' W 074°10'0 0.0
2017-Dec-10 21:00N 40°39' W 074°10'0 0.0
2017-Dec-10 20:30N 40°39' W 074°10'0 0.0
2017-Dec-10 19:50N 40°39' W 074°10'0 0.0
2017-Dec-10 19:30N 40°39' W 074°10'0 0.0
2017-Dec-10 18:59N 40°39' W 074°10'0 0.0
2017-Dec-10 18:21N 40°39' W 074°10'0 0.0
2017-Dec-10 17:53N 40°39' W 074°10'2 4.4
2017-Dec-10 17:30N 40°39' W 074°08'5 9.6
2017-Dec-10 17:00N 40°40' W 074°02'0 0.1
2017-Dec-10 16:30N 40°40' W 074°02'0 0.3
2017-Dec-10 16:00N 40°40' W 074°02'2 3.2
2017-Dec-10 15:30N 40°41' W 074°00'3 6.4
2017-Dec-10 15:00N 40°44' W 073°58'4 7.6
2017-Dec-10 14:30N 40°47' W 073°55'4 7.6
2017-Dec-10 14:00N 40°48' W 073°50'3 6.4
2017-Dec-10 13:29N 40°50' W 073°46'52 8.3
2017-Dec-10 07:14N 41°06' W 072°42'2 9.4
2017-Dec-10 07:00N 41°07' W 072°39'5 9.7
2017-Dec-10 06:30N 41°08' W 072°33'510.3
2017-Dec-10 06:00N 41°09' W 072°26'510.3
2017-Dec-10 05:30N 41°11' W 072°19'99 6.8
2017-Dec-09 14:56N 42°15' W 070°38'11 8.3
2017-Dec-09 13:40N 42°20' W 070°50'2 8.8
2017-Dec-09 13:24N 42°19' W 070°53'5 6.5
2017-Dec-09 12:41N 42°15' W 070°57'1 4.6
2017-Dec-09 12:28N 42°15' W 070°58'0 0.0
2017-Dec-08 16:48N 42°15' W 070°58'2 3.6
2017-Dec-08 16:14N 42°16' W 070°56'1 4.4
2017-Dec-08 16:00N 42°17' W 070°56'2 3.5
2017-Dec-08 15:30N 42°19' W 070°55'3 5.1
2017-Dec-08 15:00N 42°19' W 070°52'3 5.1
2017-Dec-08 14:30N 42°20' W 070°49'1 2.4
2017-Dec-08 14:00N 42°20' W 070°47'1 2.1
2017-Dec-08 13:30N 42°20' W 070°46'1 1.6
2017-Dec-08 13:00N 42°19' W 070°45'1 2.2
2017-Dec-08 12:30N 42°19' W 070°43'0 0.5
2017-Dec-08 12:00N 42°19' W 070°43'0 0.4
2017-Dec-08 11:30N 42°19' W 070°43'0 0.7
2017-Dec-08 11:00N 42°18' W 070°43'3 5.1
2017-Dec-08 10:30N 42°17' W 070°40'4 7.3
2017-Dec-08 10:00N 42°15' W 070°36'102 5.6
2017-Dec-07 15:47N 41°10' W 072°22'1 5.2
2017-Dec-07 15:30N 41°10' W 072°24'3 5.6
2017-Dec-07 15:00N 41°09' W 072°27'3 5.8
2017-Dec-07 14:30N 41°08' W 072°31'3 6.1
2017-Dec-07 14:00N 41°08' W 072°35'3 6.7
2017-Dec-07 13:30N 41°07' W 072°39'46 7.6
2017-Dec-07 07:25N 40°55' W 073°38'3 6.9
2017-Dec-07 06:56N 40°53' W 073°42'3 6.7
2017-Dec-07 06:29N 40°51' W 073°45'4 6.3
2017-Dec-07 05:55N 40°48' W 073°47'3 6.6
2017-Dec-07 05:30N 40°48' W 073°51'3 6.4
2017-Dec-07 05:00N 40°47' W 073°55'3 7.0
2017-Dec-07 04:30N 40°45' W 073°58'3 6.5
2017-Dec-07 04:00N 40°42' W 074°00'2 5.0
2017-Dec-07 03:30N 40°40' W 074°02'0 0.1
2017-Dec-07 03:00N 40°40' W 074°02'0 0.0
2017-Dec-07 02:30N 40°40' W 074°02'0 0.1
2017-Dec-07 02:00N 40°40' W 074°02'0 0.0
2017-Dec-07 01:30N 40°40' W 074°02'0 0.3
2017-Dec-07 01:00N 40°40' W 074°02'1 2.8
2017-Dec-07 00:30N 40°39' W 074°04'3 5.3
2017-Dec-07 00:00N 40°39' W 074°07'3 5.2
2017-Dec-06 23:30N 40°39' W 074°10'2 4.9
2017-Dec-06 23:00N 40°37' W 074°12'  
2017-Dec-04 10:24N 40°39' W 074°03'0 0.2
2017-Dec-04 10:00N 40°39' W 074°03'0 0.1
2017-Dec-04 09:30N 40°39' W 074°03'0 0.0
2017-Dec-04 08:57N 40°39' W 074°03'0 0.0
2017-Dec-04 08:30N 40°39' W 074°03'0 0.0
2017-Dec-04 08:00N 40°39' W 074°03'0 0.0
2017-Dec-04 07:30N 40°39' W 074°03'0 0.0
2017-Dec-04 07:00N 40°39' W 074°03'0 0.0
2017-Dec-04 06:30N 40°39' W 074°03'0 0.0
2017-Dec-04 06:00N 40°39' W 074°03'0 0.0
2017-Dec-04 05:30N 40°39' W 074°03'0 0.0
2017-Dec-04 05:00N 40°39' W 074°03'0 0.0
2017-Dec-04 04:30N 40°39' W 074°03'0 0.0
2017-Dec-04 04:00N 40°39' W 074°03'0 0.1
2017-Dec-04 03:30N 40°39' W 074°03'0 0.3
2017-Dec-04 03:00N 40°39' W 074°03'0 0.2
2017-Dec-04 02:30N 40°39' W 074°03'0 0.0
2017-Dec-04 02:00N 40°39' W 074°03'0 0.0
2017-Dec-04 01:30N 40°39' W 074°03'0 0.0
2017-Dec-04 01:00N 40°39' W 074°03'0 0.0
2017-Dec-04 00:30N 40°39' W 074°03'0 0.1
2017-Dec-04 00:00N 40°39' W 074°03'0 0.1
2017-Dec-03 23:30N 40°39' W 074°03'0 0.0
2017-Dec-03 23:00N 40°39' W 074°03'0 0.2
2017-Dec-03 22:30N 40°39' W 074°03'0 0.2
2017-Dec-03 22:00N 40°39' W 074°03'0 0.1
2017-Dec-03 21:30N 40°39' W 074°03'0 0.1
2017-Dec-03 21:00N 40°39' W 074°03'0 0.0
2017-Dec-03 20:30N 40°39' W 074°03'0 0.5
2017-Dec-03 20:01N 40°39' W 074°03'4 8.4
2017-Dec-03 19:31N 40°38' W 074°09'1 1.7
2017-Dec-03 18:58N 40°39' W 074°10'0 0.0
2017-Dec-03 18:19N 40°39' W 074°10'0 0.0
2017-Dec-03 17:55N 40°39' W 074°10'0 0.0
2017-Dec-03 17:22N 40°39' W 074°10'0 1.2
2017-Dec-03 17:00N 40°38' W 074°09'4 7.6
2017-Dec-03 16:31N 40°39' W 074°04'1 2.2
2017-Dec-03 15:59N 40°39' W 074°03'0 0.0
2017-Dec-03 15:30N 40°39' W 074°03'1 2.5
2017-Dec-03 15:00N 40°40' W 074°03'4 8.3
2017-Dec-03 14:30N 40°44' W 074°01'4 7.2
2017-Dec-03 14:00N 40°48' W 073°59'3 6.4
2017-Dec-03 13:30N 40°50' W 073°57'3 6.3
2017-Dec-03 12:59N 40°53' W 073°55'1 2.9
2017-Dec-03 12:30N 40°55' W 073°55'0 0.0
2017-Dec-03 12:00N 40°55' W 073°55'0 0.0
2017-Dec-03 10:54N 40°55' W 073°55'0 0.0
2017-Dec-03 10:30N 40°55' W 073°55'0 0.4
2017-Dec-03 09:50N 40°55' W 073°55'0 0.1
2017-Dec-03 09:30N 40°55' W 073°55'0 0.0
2017-Dec-03 08:53N 40°55' W 073°55'0 0.0
2017-Dec-03 08:30N 40°55' W 073°55'0 0.0
2017-Dec-03 08:00N 40°55' W 073°55'0 0.0
2017-Dec-03 07:30N 40°55' W 073°55'0 0.0
2017-Dec-03 07:00N 40°55' W 073°55'0 0.0
2017-Dec-03 06:30N 40°55' W 073°55'0 0.0
2017-Dec-03 06:00N 40°55' W 073°55'0 0.0
2017-Dec-03 05:24N 40°55' W 073°55'0 0.0
2017-Dec-03 04:50N 40°55' W 073°55'0 0.0
2017-Dec-03 04:15N 40°55' W 073°55'0 0.0
2017-Dec-03 04:00N 40°55' W 073°55'0 0.2
2017-Dec-03 03:24N 40°55' W 073°55'0 0.1
2017-Dec-03 00:59N 40°55' W 073°55'0 0.0
2017-Dec-03 00:29N 40°55' W 073°55'0 0.0
2017-Dec-02 23:42N 40°55' W 073°55'0 0.0
2017-Dec-02 23:27N 40°55' W 073°55'0 0.2
2017-Dec-02 22:18N 40°55' W 073°55'0 0.1
2017-Dec-02 21:57N 40°55' W 073°55'0 0.0
2017-Dec-02 21:29N 40°55' W 073°55'0 0.0
2017-Dec-02 20:59N 40°55' W 073°55'0 0.0
2017-Dec-02 20:29N 40°55' W 073°55'0 0.0
2017-Dec-02 19:59N 40°55' W 073°55'0 0.0
2017-Dec-02 19:26N 40°55' W 073°55'0 0.0
2017-Dec-02 18:53N 40°55' W 073°55'0 0.0
2017-Dec-02 18:23N 40°55' W 073°55'0 0.0
2017-Dec-02 18:00N 40°55' W 073°55'0 0.0
2017-Dec-02 17:26N 40°55' W 073°55'0 0.0
2017-Dec-02 17:00N 40°55' W 073°55'0 0.0
2017-Dec-02 16:29N 40°55' W 073°55'0 0.0
2017-Dec-02 15:59N 40°55' W 073°55'0 0.2
2017-Dec-02 15:08N 40°55' W 073°55'0 0.2
2017-Dec-02 14:44N 40°55' W 073°55'0 0.0
2017-Dec-02 14:29N 40°55' W 073°55'0 0.0
2017-Dec-02 10:57N 40°55' W 073°55'0 0.0
2017-Dec-02 10:11N 40°55' W 073°55'0 0.1
2017-Dec-02 09:50N 40°55' W 073°55'0 0.4
2017-Dec-02 09:29N 40°55' W 073°55'0 0.2
2017-Dec-02 08:50N 40°55' W 073°55'0 0.1
2017-Dec-02 08:29N 40°55' W 073°55'0 0.0
2017-Dec-02 07:59N 40°55' W 073°55'0 0.0
2017-Dec-02 07:29N 40°55' W 073°55'0 0.0
2017-Dec-02 06:59N 40°55' W 073°55'0 0.0
2017-Dec-02 06:29N 40°55' W 073°55'0 0.0
2017-Dec-02 05:59N 40°55' W 073°55'0 0.0
2017-Dec-02 05:26N 40°55' W 073°55'0 0.0
2017-Dec-02 04:57N 40°55' W 073°55'0 0.0
2017-Dec-02 04:02N 40°55' W 073°55'0 0.1
2017-Dec-02 03:59N 40°55' W 073°55'0 0.0
2017-Dec-02 03:29N 40°55' W 073°55'0 0.2
2017-Dec-02 02:47N 40°55' W 073°55'0 0.3
2017-Dec-02 02:29N 40°55' W 073°55'0 0.0
2017-Dec-02 00:47N 40°55' W 073°55'0 0.0
2017-Dec-02 00:23N 40°55' W 073°55'0 0.0
2017-Dec-01 23:23N 40°55' W 073°55'0 0.1
2017-Dec-01 21:32N 40°55' W 073°55'0 0.1
2017-Dec-01 21:29N 40°55' W 073°55'0 0.0
2017-Dec-01 20:08N 40°55' W 073°55'0 0.0
2017-Dec-01 19:59N 40°55' W 073°55'0 0.0
2017-Dec-01 19:26N 40°55' W 073°55'0 0.0
2017-Dec-01 18:59N 40°55' W 073°55'0 0.0
2017-Dec-01 18:20N 40°55' W 073°55'0 0.0
2017-Dec-01 17:59N 40°55' W 073°55'0 0.0
2017-Dec-01 17:26N 40°55' W 073°55'  
Track history (hours):
 
Tides and Currents Weather Stations Pressure Air Temp Water Temp Dewpoint Dewpoint Depression Visibility Wind Speed Wind Dir Waves Ship Positions

Mckinley Sea

Owner: Kirby Offshore Marine, LLC, Staten Island, NY. More information available from US FCC via Universal Licensing System and Coast Guard Vessel Documentation Center.

Last reported at 2017-Dec-11 17:01 UTC. Time now 2017-Dec-12 02:52 UTC.
Position N 40°39' W 074°04'.

Length 41 m; draft 6 m.

Type: . MMSI: 367360980.

Date/timePositionNaut miles runAvg speedWind from/ knotsBaromVisibWave heightAir tempDewpointWater temp
2017-Dec-11 17:01N 40°39' W 074°04'2 3.9
2017-Dec-11 16:30N 40°40' W 074°02'0 0.0
2017-Dec-11 16:00N 40°40' W 074°02'0 0.0
2017-Dec-11 15:30N 40°40' W 074°02'0 0.1
2017-Dec-11 15:00N 40°40' W 074°02'0 0.0
2017-Dec-11 14:30N 40°40' W 074°02'0 0.0
2017-Dec-11 14:00N 40°40' W 074°02'0 0.1
2017-Dec-11 13:30N 40°40' W 074°02'0 0.0
2017-Dec-11 12:57N 40°40' W 074°02'0 0.0
2017-Dec-11 12:30N 40°40' W 074°02'0 0.1
2017-Dec-11 12:00N 40°40' W 074°02'0 0.0
2017-Dec-11 11:30N 40°40' W 074°02'0 0.1
2017-Dec-11 11:00N 40°40' W 074°02'0 0.2
2017-Dec-11 10:30N 40°40' W 074°02'0 0.0
2017-Dec-11 10:00N 40°40' W 074°02'0 0.1
2017-Dec-11 09:30N 40°40' W 074°02'0 0.0
2017-Dec-11 09:00N 40°40' W 074°02'0 0.0
2017-Dec-11 08:30N 40°40' W 074°02'0 0.0
2017-Dec-11 08:00N 40°40' W 074°02'0 0.0
2017-Dec-11 07:30N 40°40' W 074°02'0 0.0
2017-Dec-11 07:00N 40°40' W 074°02'0 0.0
2017-Dec-11 06:30N 40°40' W 074°02'0 0.0
2017-Dec-11 06:00N 40°40' W 074°02'0 0.1
2017-Dec-11 05:30N 40°40' W 074°02'0 0.3
2017-Dec-11 05:00N 40°40' W 074°02'0 0.1
2017-Dec-11 04:30N 40°40' W 074°02'0 0.0
2017-Dec-11 04:00N 40°40' W 074°02'0 0.0
2017-Dec-11 03:30N 40°40' W 074°02'0 0.0
2017-Dec-11 03:00N 40°40' W 074°02'0 0.0
2017-Dec-11 02:30N 40°40' W 074°02'0 0.0
2017-Dec-11 02:00N 40°40' W 074°02'0 0.0
2017-Dec-11 01:30N 40°40' W 074°02'0 0.0
2017-Dec-11 01:00N 40°40' W 074°02'0 0.0
2017-Dec-11 00:30N 40°40' W 074°02'0 0.1
2017-Dec-11 00:00N 40°40' W 074°02'0 0.0
2017-Dec-10 23:30N 40°40' W 074°02'0 0.1
2017-Dec-10 23:00N 40°40' W 074°02'2 4.5
2017-Dec-10 22:30N 40°39' W 074°05'4 8.3
2017-Dec-10 22:00N 40°39' W 074°10'0 0.0
2017-Dec-10 21:27N 40°39' W 074°10'0 0.0
2017-Dec-10 21:00N 40°39' W 074°10'0 0.0
2017-Dec-10 20:30N 40°39' W 074°10'0 0.0
2017-Dec-10 19:50N 40°39' W 074°10'0 0.0
2017-Dec-10 19:30N 40°39' W 074°10'0 0.0
2017-Dec-10 18:59N 40°39' W 074°10'0 0.0
2017-Dec-10 18:21N 40°39' W 074°10'0 0.0
2017-Dec-10 17:53N 40°39' W 074°10'2 4.4
2017-Dec-10 17:30N 40°39' W 074°08'5 9.6
2017-Dec-10 17:00N 40°40' W 074°02'0 0.1
2017-Dec-10 16:30N 40°40' W 074°02'0 0.3
2017-Dec-10 16:00N 40°40' W 074°02'2 3.2
2017-Dec-10 15:30N 40°41' W 074°00'3 6.4
2017-Dec-10 15:00N 40°44' W 073°58'4 7.6
2017-Dec-10 14:30N 40°47' W 073°55'4 7.6
2017-Dec-10 14:00N 40°48' W 073°50'3 6.4
2017-Dec-10 13:29N 40°50' W 073°46'52 8.3
2017-Dec-10 07:14N 41°06' W 072°42'2 9.4
2017-Dec-10 07:00N 41°07' W 072°39'5 9.7
2017-Dec-10 06:30N 41°08' W 072°33'510.3
2017-Dec-10 06:00N 41°09' W 072°26'510.3
2017-Dec-10 05:30N 41°11' W 072°19'99 6.8
2017-Dec-09 14:56N 42°15' W 070°38'11 8.3
2017-Dec-09 13:40N 42°20' W 070°50'2 8.8
2017-Dec-09 13:24N 42°19' W 070°53'5 6.5
2017-Dec-09 12:41N 42°15' W 070°57'1 4.6
2017-Dec-09 12:28N 42°15' W 070°58'0 0.0
2017-Dec-08 16:48N 42°15' W 070°58'2 3.6
2017-Dec-08 16:14N 42°16' W 070°56'1 4.4
2017-Dec-08 16:00N 42°17' W 070°56'2 3.5
2017-Dec-08 15:30N 42°19' W 070°55'3 5.1
2017-Dec-08 15:00N 42°19' W 070°52'3 5.1
2017-Dec-08 14:30N 42°20' W 070°49'1 2.4
2017-Dec-08 14:00N 42°20' W 070°47'1 2.1
2017-Dec-08 13:30N 42°20' W 070°46'1 1.6
2017-Dec-08 13:00N 42°19' W 070°45'1 2.2
2017-Dec-08 12:30N 42°19' W 070°43'0 0.5
2017-Dec-08 12:00N 42°19' W 070°43'0 0.4
2017-Dec-08 11:30N 42°19' W 070°43'0 0.7
2017-Dec-08 11:00N 42°18' W 070°43'3 5.1
2017-Dec-08 10:30N 42°17' W 070°40'4 7.3
2017-Dec-08 10:00N 42°15' W 070°36'102 5.6
2017-Dec-07 15:47N 41°10' W 072°22'1 5.2
2017-Dec-07 15:30N 41°10' W 072°24'3 5.6
2017-Dec-07 15:00N 41°09' W 072°27'3 5.8
2017-Dec-07 14:30N 41°08' W 072°31'3 6.1
2017-Dec-07 14:00N 41°08' W 072°35'3 6.7
2017-Dec-07 13:30N 41°07' W 072°39'46 7.6
2017-Dec-07 07:25N 40°55' W 073°38'3 6.9
2017-Dec-07 06:56N 40°53' W 073°42'3 6.7
2017-Dec-07 06:29N 40°51' W 073°45'4 6.3
2017-Dec-07 05:55N 40°48' W 073°47'3 6.6
2017-Dec-07 05:30N 40°48' W 073°51'3 6.4
2017-Dec-07 05:00N 40°47' W 073°55'3 7.0
2017-Dec-07 04:30N 40°45' W 073°58'3 6.5
2017-Dec-07 04:00N 40°42' W 074°00'2 5.0
2017-Dec-07 03:30N 40°40' W 074°02'0 0.1
2017-Dec-07 03:00N 40°40' W 074°02'0 0.0
2017-Dec-07 02:30N 40°40' W 074°02'0 0.1
2017-Dec-07 02:00N 40°40' W 074°02'0 0.0
2017-Dec-07 01:30N 40°40' W 074°02'0 0.3
2017-Dec-07 01:00N 40°40' W 074°02'1 2.8
2017-Dec-07 00:30N 40°39' W 074°04'3 5.3
2017-Dec-07 00:00N 40°39' W 074°07'3 5.2
2017-Dec-06 23:30N 40°39' W 074°10'2 4.9
2017-Dec-06 23:00N 40°37' W 074°12'  
2017-Dec-04 10:24N 40°39' W 074°03'0 0.2
2017-Dec-04 10:00N 40°39' W 074°03'0 0.1
2017-Dec-04 09:30N 40°39' W 074°03'0 0.0
2017-Dec-04 08:57N 40°39' W 074°03'0 0.0
2017-Dec-04 08:30N 40°39' W 074°03'0 0.0
2017-Dec-04 08:00N 40°39' W 074°03'0 0.0
2017-Dec-04 07:30N 40°39' W 074°03'0 0.0
2017-Dec-04 07:00N 40°39' W 074°03'0 0.0
2017-Dec-04 06:30N 40°39' W 074°03'0 0.0
2017-Dec-04 06:00N 40°39' W 074°03'0 0.0
2017-Dec-04 05:30N 40°39' W 074°03'0 0.0
2017-Dec-04 05:00N 40°39' W 074°03'0 0.0
2017-Dec-04 04:30N 40°39' W 074°03'0 0.0
2017-Dec-04 04:00N 40°39' W 074°03'0 0.1
2017-Dec-04 03:30N 40°39' W 074°03'0 0.3
2017-Dec-04 03:00N 40°39' W 074°03'0 0.2
2017-Dec-04 02:30N 40°39' W 074°03'0 0.0
2017-Dec-04 02:00N 40°39' W 074°03'0 0.0
2017-Dec-04 01:30N 40°39' W 074°03'0 0.0
2017-Dec-04 01:00N 40°39' W 074°03'0 0.0
2017-Dec-04 00:30N 40°39' W 074°03'0 0.1
2017-Dec-04 00:00N 40°39' W 074°03'0 0.1
2017-Dec-03 23:30N 40°39' W 074°03'0 0.0
2017-Dec-03 23:00N 40°39' W 074°03'0 0.2
2017-Dec-03 22:30N 40°39' W 074°03'0 0.2
2017-Dec-03 22:00N 40°39' W 074°03'0 0.1
2017-Dec-03 21:30N 40°39' W 074°03'0 0.1
2017-Dec-03 21:00N 40°39' W 074°03'0 0.0
2017-Dec-03 20:30N 40°39' W 074°03'0 0.5
2017-Dec-03 20:01N 40°39' W 074°03'4 8.4
2017-Dec-03 19:31N 40°38' W 074°09'1 1.7
2017-Dec-03 18:58N 40°39' W 074°10'0 0.0
2017-Dec-03 18:19N 40°39' W 074°10'0 0.0
2017-Dec-03 17:55N 40°39' W 074°10'0 0.0
2017-Dec-03 17:22N 40°39' W 074°10'0 1.2
2017-Dec-03 17:00N 40°38' W 074°09'4 7.6
2017-Dec-03 16:31N 40°39' W 074°04'1 2.2
2017-Dec-03 15:59N 40°39' W 074°03'0 0.0
2017-Dec-03 15:30N 40°39' W 074°03'1 2.5
2017-Dec-03 15:00N 40°40' W 074°03'4 8.3
2017-Dec-03 14:30N 40°44' W 074°01'4 7.2
2017-Dec-03 14:00N 40°48' W 073°59'3 6.4
2017-Dec-03 13:30N 40°50' W 073°57'3 6.3
2017-Dec-03 12:59N 40°53' W 073°55'1 2.9
2017-Dec-03 12:30N 40°55' W 073°55'0 0.0
2017-Dec-03 12:00N 40°55' W 073°55'0 0.0
2017-Dec-03 10:54N 40°55' W 073°55'0 0.0
2017-Dec-03 10:30N 40°55' W 073°55'0 0.4
2017-Dec-03 09:50N 40°55' W 073°55'0 0.1
2017-Dec-03 09:30N 40°55' W 073°55'0 0.0
2017-Dec-03 08:53N 40°55' W 073°55'0 0.0
2017-Dec-03 08:30N 40°55' W 073°55'0 0.0
2017-Dec-03 08:00N 40°55' W 073°55'0 0.0
2017-Dec-03 07:30N 40°55' W 073°55'0 0.0
2017-Dec-03 07:00N 40°55' W 073°55'0 0.0
2017-Dec-03 06:30N 40°55' W 073°55'0 0.0
2017-Dec-03 06:00N 40°55' W 073°55'0 0.0
2017-Dec-03 05:24N 40°55' W 073°55'0 0.0
2017-Dec-03 04:50N 40°55' W 073°55'0 0.0
2017-Dec-03 04:15N 40°55' W 073°55'0 0.0
2017-Dec-03 04:00N 40°55' W 073°55'0 0.2
2017-Dec-03 03:24N 40°55' W 073°55'0 0.1
2017-Dec-03 00:59N 40°55' W 073°55'0 0.0
2017-Dec-03 00:29N 40°55' W 073°55'0 0.0
2017-Dec-02 23:42N 40°55' W 073°55'0 0.0
2017-Dec-02 23:27N 40°55' W 073°55'0 0.2
2017-Dec-02 22:18N 40°55' W 073°55'0 0.1
2017-Dec-02 21:57N 40°55' W 073°55'0 0.0
2017-Dec-02 21:29N 40°55' W 073°55'0 0.0
2017-Dec-02 20:59N 40°55' W 073°55'0 0.0
2017-Dec-02 20:29N 40°55' W 073°55'0 0.0
2017-Dec-02 19:59N 40°55' W 073°55'0 0.0
2017-Dec-02 19:26N 40°55' W 073°55'0 0.0
2017-Dec-02 18:53N 40°55' W 073°55'0 0.0
2017-Dec-02 18:23N 40°55' W 073°55'0 0.0
2017-Dec-02 18:00N 40°55' W 073°55'0 0.0
2017-Dec-02 17:26N 40°55' W 073°55'0 0.0
2017-Dec-02 17:00N 40°55' W 073°55'0 0.0
2017-Dec-02 16:29N 40°55' W 073°55'0 0.0
2017-Dec-02 15:59N 40°55' W 073°55'0 0.2
2017-Dec-02 15:08N 40°55' W 073°55'0 0.2
2017-Dec-02 14:44N 40°55' W 073°55'0 0.0
2017-Dec-02 14:29N 40°55' W 073°55'0 0.0
2017-Dec-02 10:57N 40°55' W 073°55'0 0.0
2017-Dec-02 10:11N 40°55' W 073°55'0 0.1
2017-Dec-02 09:50N 40°55' W 073°55'0 0.4
2017-Dec-02 09:29N 40°55' W 073°55'0 0.2
2017-Dec-02 08:50N 40°55' W 073°55'0 0.1
2017-Dec-02 08:29N 40°55' W 073°55'0 0.0
2017-Dec-02 07:59N 40°55' W 073°55'0 0.0
2017-Dec-02 07:29N 40°55' W 073°55'0 0.0
2017-Dec-02 06:59N 40°55' W 073°55'0 0.0
2017-Dec-02 06:29N 40°55' W 073°55'0 0.0
2017-Dec-02 05:59N 40°55' W 073°55'0 0.0
2017-Dec-02 05:26N 40°55' W 073°55'0 0.0
2017-Dec-02 04:57N 40°55' W 073°55'0 0.0
2017-Dec-02 04:02N 40°55' W 073°55'0 0.1
2017-Dec-02 03:59N 40°55' W 073°55'0 0.0
2017-Dec-02 03:29N 40°55' W 073°55'0 0.2
2017-Dec-02 02:47N 40°55' W 073°55'0 0.3
2017-Dec-02 02:29N 40°55' W 073°55'0 0.0
2017-Dec-02 00:47N 40°55' W 073°55'0 0.0
2017-Dec-02 00:23N 40°55' W 073°55'0 0.0
2017-Dec-01 23:23N 40°55' W 073°55'0 0.1
2017-Dec-01 21:32N 40°55' W 073°55'0 0.1
2017-Dec-01 21:29N 40°55' W 073°55'0 0.0
2017-Dec-01 20:08N 40°55' W 073°55'0 0.0
2017-Dec-01 19:59N 40°55' W 073°55'0 0.0
2017-Dec-01 19:26N 40°55' W 073°55'0 0.0
2017-Dec-01 18:59N 40°55' W 073°55'0 0.0
2017-Dec-01 18:20N 40°55' W 073°55'0 0.0
2017-Dec-01 17:59N 40°55' W 073°55'0 0.0
2017-Dec-01 17:26N 40°55' W 073°55'  

Dump ship's entire track history